Willoughby, OH (44095)

5:53 AM EST on February 01, 2015 (GMT -0500)
reeves road | Change Station
CLOSE
Current Station
Personal Weather Station
Location: Eastlake, OH
Elevation: 607 ft
Nearby Weather Stations
Active Advisory: Winter Storm Warning

Elev 607 ft 41.67 °N, 81.42 °W | Updated 10 minutes ago

Snow
Snow
30.2 °F
Feels Like 30 °F
N
0.0
Wind Variable Wind from SW

Today
High -- | Low -- °F
--% Chance of Precip.
Yesterday
High -- | Low -- °F
Precip. -- in
7:38 AM 5:41 PM
Waxing Gibbous, 94% visible
Pressure 30.16 in
Visibility 2.0 miles
Clouds Mostly Cloudy 800 ft
Overcast 1900 ft
Windchill 30 °F
Dew Point 29 °F
Humidity 96%
Rainfall 0.00 in
Snow Depth Not available.
UV 0 out of 12
Pollen .10 out of 12
Air Quality Not available.
Flu Activity Not available.
SPECI KBKL 011036Z 22004KT 2SM -SN BR BKN008 OVC019 M01/M02 A3016 RMK AO2 CIG 006V011 P0000 T10061017

More Conditions Fewer Conditions

Pressure 30.16 in
Visibility 2.0 miles
Clouds Mostly Cloudy 800 ft
Overcast 1900 ft
Windchill 30 °F
Dew Point 29 °F
Humidity 96%
Rainfall 0.00 in
Snow Depth Not available.
UV 0 out of 12
Pollen .10 out of 12
Air Quality Not available.
Flu Activity Not available.
SPECI KBKL 011036Z 22004KT 2SM -SN BR BKN008 OVC019 M01/M02 A3016 RMK AO2 CIG 006V011 P0000 T10061017

More Conditions Fewer Conditions

10-Day Weather Forecast

Almanac

Astronomy

Feb. 01, 2015 Rise Set
Actual Time
Civil Twilight
Nautical Twilight
Astronomical Twilight
Moon
Length of Visible Light
Length of Day
Tomorrow will be .
, % of the Moon is Illuminated

Today's Extremes

State Highs State Lows

Community

WunderPhotos

Upload Photos

1,792,343 photos uploaded!

WunderBlogs® & News

Nearby

Air Quality

  Air Quality AQ Index Pollutant
Not available.

Snow Depth

Station Depth Elevation

Earthquake Activity

City Distance Mag. Time & Date
Minimum magnitude displayed is 2.5.

Coastal Water Temperatures

Place Temperature

Nearby Weather Stations